createdAt,value
2023-01-09T00:01:23.354Z,4.23
2023-01-09T00:04:24.665Z,4.10
2023-01-09T00:07:26.013Z,4.53
2023-01-09T00:10:27.335Z,4.13
2023-01-09T00:13:28.642Z,3.80
2023-01-09T00:16:30.011Z,3.77
2023-01-09T00:19:31.345Z,4.03
2023-01-09T00:22:32.643Z,3.33
2023-01-09T00:25:33.952Z,3.67
2023-01-09T00:28:35.226Z,3.80
2023-01-09T00:31:36.549Z,3.10
2023-01-09T00:34:37.876Z,3.20
2023-01-09T00:37:39.189Z,4.57
2023-01-09T00:40:40.491Z,3.90
2023-01-09T00:43:41.815Z,4.07
2023-01-09T00:46:43.144Z,4.33
2023-01-09T00:49:44.471Z,3.60
2023-01-09T00:52:45.781Z,4.00
2023-01-09T00:55:47.079Z,3.22
2023-01-09T00:58:48.478Z,3.63
2023-01-09T01:01:49.970Z,3.97
2023-01-09T01:04:51.354Z,3.53
2023-01-09T01:07:52.633Z,3.58
2023-01-09T01:10:53.943Z,4.43
2023-01-09T01:13:55.240Z,3.80
2023-01-09T01:16:56.622Z,2.97
2023-01-09T01:19:57.943Z,3.65
2023-01-09T01:22:59.251Z,3.97
2023-01-09T01:26:00.549Z,3.72
2023-01-09T01:29:01.848Z,3.47
2023-01-09T01:32:03.149Z,3.37
2023-01-09T01:35:04.432Z,3.88
2023-01-09T01:38:05.751Z,3.05
2023-01-09T01:41:07.101Z,3.47
2023-01-09T01:44:08.407Z,3.80
2023-01-09T01:47:09.709Z,3.23
2023-01-09T01:50:11.024Z,3.30
2023-01-09T01:53:12.321Z,4.20
2023-01-09T01:56:13.619Z,3.55
2023-01-09T01:59:14.922Z,3.50
2023-01-09T02:02:16.291Z,3.63
2023-01-09T02:05:17.693Z,3.30
2023-01-09T02:08:18.982Z,3.50
2023-01-09T02:11:20.291Z,3.08
2023-01-09T02:14:21.588Z,3.22
2023-01-09T02:17:22.889Z,2.90
2023-01-09T02:20:24.233Z,3.03
2023-01-09T02:23:25.534Z,3.78
2023-01-09T02:26:26.871Z,3.33
2023-01-09T02:29:28.178Z,2.95
2023-01-09T02:32:29.500Z,2.83
2023-01-09T02:35:30.784Z,3.17
2023-01-09T02:38:32.076Z,4.65
2023-01-09T02:41:33.357Z,3.33
2023-01-09T02:44:34.652Z,3.42
2023-01-09T02:47:35.960Z,3.00
2023-01-09T02:50:37.251Z,3.25
2023-01-09T02:53:38.557Z,3.03
2023-01-09T02:56:39.844Z,3.25
2023-01-09T02:59:41.156Z,3.30
2023-01-09T03:02:42.506Z,3.30
2023-01-09T03:05:43.857Z,5.68
2023-01-09T03:08:45.148Z,4.88
2023-01-09T03:11:46.448Z,4.95
2023-01-09T03:14:47.770Z,4.68
2023-01-09T03:17:49.082Z,4.67
2023-01-09T03:20:50.374Z,6.53
2023-01-09T03:23:51.705Z,4.82
2023-01-09T03:26:53.017Z,4.78
2023-01-09T03:29:54.323Z,4.88
2023-01-09T03:32:55.619Z,4.63
2023-01-09T03:35:56.955Z,4.80
2023-01-09T03:38:58.350Z,4.97
2023-01-09T03:41:59.668Z,5.18
2023-01-09T03:45:00.988Z,5.60
2023-01-09T03:48:02.275Z,4.70
2023-01-09T03:51:03.596Z,4.35
2023-01-09T03:54:04.911Z,4.43
2023-01-09T03:57:06.195Z,3.88
2023-01-09T04:00:07.503Z,3.78
2023-01-09T04:03:08.847Z,4.17
2023-01-09T04:06:10.151Z,3.85
2023-01-09T04:09:11.527Z,4.68
2023-01-09T04:12:12.846Z,3.67
2023-01-09T04:15:14.152Z,3.90
2023-01-09T04:18:15.471Z,4.07
2023-01-09T04:21:16.762Z,4.60
2023-01-09T04:24:18.095Z,4.07
2023-01-09T04:27:19.386Z,3.78
2023-01-09T04:30:20.689Z,3.60
2023-01-09T04:33:21.967Z,3.53
2023-01-09T04:36:23.296Z,3.88
2023-01-09T04:39:24.574Z,3.75
2023-01-09T04:42:25.882Z,3.80
2023-01-09T04:45:27.172Z,4.13
2023-01-09T04:48:28.490Z,3.90
2023-01-09T04:51:29.786Z,5.22
2023-01-09T04:54:31.090Z,3.33
2023-01-09T04:57:32.432Z,3.70
2023-01-09T05:00:33.841Z,4.45
2023-01-09T05:03:35.139Z,4.37
2023-01-09T05:06:36.495Z,3.25
2023-01-09T05:09:37.797Z,3.40
2023-01-09T05:12:39.091Z,4.15
2023-01-09T05:15:40.382Z,3.22
2023-01-09T05:18:41.683Z,3.50
2023-01-09T05:21:42.985Z,5.95
2023-01-09T05:24:44.282Z,3.72
2023-01-09T05:27:45.581Z,3.47
2023-01-09T05:30:46.882Z,5.85
2023-01-09T05:33:48.190Z,3.40
2023-01-09T05:36:49.493Z,3.40
2023-01-09T05:39:50.775Z,3.90
2023-01-09T05:42:52.073Z,4.50
2023-01-09T05:45:53.410Z,5.43
2023-01-09T05:48:54.760Z,4.37
2023-01-09T05:51:56.049Z,5.47
2023-01-09T05:54:57.358Z,4.15
2023-01-09T05:57:58.661Z,3.85
2023-01-09T06:01:00.010Z,3.80
2023-01-09T06:04:01.343Z,4.43
2023-01-09T06:07:02.637Z,4.05
2023-01-09T06:10:03.957Z,3.72
2023-01-09T06:13:05.287Z,4.68
2023-01-09T06:16:06.685Z,3.30
2023-01-09T06:19:08.054Z,3.97
2023-01-09T06:22:09.350Z,3.88
2023-01-09T06:25:10.653Z,4.13
2023-01-09T06:28:11.975Z,5.25
2023-01-09T06:31:13.366Z,6.20
2023-01-09T06:34:14.756Z,4.60
2023-01-09T06:37:16.058Z,6.32
2023-01-09T06:40:17.406Z,6.10
2023-01-09T06:43:18.782Z,23.92
2023-01-09T06:46:20.180Z,7.40
2023-01-09T06:49:21.527Z,3.93
2023-01-09T06:52:22.847Z,32.08
2023-01-09T06:55:24.120Z,28.83
2023-01-09T06:58:25.439Z,27.45
2023-01-09T07:01:26.831Z,22.83
2023-01-09T07:04:28.267Z,26.90
2023-01-09T07:07:29.583Z,24.48
2023-01-09T07:10:30.903Z,30.05
2023-01-09T07:13:32.218Z,25.30
2023-01-09T07:16:33.531Z,21.33
2023-01-09T07:19:34.863Z,24.40
2023-01-09T07:22:36.200Z,19.40
2023-01-09T07:25:37.510Z,21.48
2023-01-09T07:28:38.830Z,20.30
2023-01-09T07:31:40.191Z,18.42
2023-01-09T07:34:41.552Z,19.40
2023-01-09T07:37:42.877Z,26.92
2023-01-09T07:40:44.173Z,23.98
2023-01-09T07:43:45.474Z,23.25
2023-01-09T07:46:46.786Z,25.05
2023-01-09T07:49:48.077Z,23.53
2023-01-09T07:52:49.399Z,115.75
2023-01-09T07:55:50.788Z,90.13
2023-01-09T07:58:52.080Z,70.55
2023-01-09T08:01:53.419Z,44.45
2023-01-09T08:04:54.750Z,56.23
2023-01-09T08:07:56.133Z,57.67
2023-01-09T08:10:57.447Z,49.97
2023-01-09T08:13:58.747Z,46.30
2023-01-09T08:17:00.047Z,44.60
2023-01-09T08:20:01.356Z,55.37
2023-01-09T08:23:02.778Z,36.85
2023-01-09T08:26:04.141Z,31.45
2023-01-09T08:29:05.461Z,28.45
2023-01-09T08:32:06.757Z,35.33
2023-01-09T08:35:08.284Z,36.90
2023-01-09T08:38:09.805Z,26.98
2023-01-09T08:41:11.117Z,32.22
2023-01-09T08:44:12.415Z,26.23
2023-01-09T08:47:13.699Z,22.23
2023-01-09T08:50:15.045Z,46.37
2023-01-09T08:53:16.341Z,107.03
2023-01-09T08:56:17.664Z,86.65
2023-01-09T08:59:19.084Z,114.45
2023-01-09T09:02:20.464Z,112.22
2023-01-09T09:05:21.802Z,99.50
2023-01-09T09:08:23.096Z,85.45
2023-01-09T09:11:24.398Z,68.00
2023-01-09T09:14:25.838Z,60.30
2023-01-09T09:17:27.162Z,85.88
2023-01-09T09:20:28.489Z,55.30
2023-01-09T09:23:29.810Z,57.00
2023-01-09T09:26:31.139Z,59.58
2023-01-09T09:29:32.446Z,47.58
2023-01-09T09:32:33.939Z,41.35
2023-01-09T09:35:35.300Z,43.07
2023-01-09T09:38:36.640Z,40.78
2023-01-09T09:41:37.936Z,44.88
2023-01-09T09:44:39.604Z,48.85
2023-01-09T09:47:43.275Z,40.92
2023-01-09T09:50:44.615Z,33.87
2023-01-09T09:53:45.935Z,52.13
2023-01-09T09:56:47.309Z,30.23
2023-01-09T09:59:48.629Z,35.55
2023-01-09T10:02:49.992Z,35.42
2023-01-09T10:05:51.419Z,35.77
2023-01-09T10:08:52.730Z,33.60
2023-01-09T10:11:54.056Z,36.60
2023-01-09T10:14:55.381Z,75.55
2023-01-09T10:17:56.729Z,80.70
2023-01-09T10:20:58.036Z,71.77
2023-01-09T10:23:59.431Z,67.80
2023-01-09T10:27:00.758Z,57.53
2023-01-09T10:30:02.075Z,57.88
2023-01-09T10:33:03.403Z,57.22
2023-01-09T10:36:04.704Z,42.27
2023-01-09T10:39:06.045Z,45.72
2023-01-09T10:42:07.359Z,44.05
2023-01-09T10:45:08.695Z,45.50
2023-01-09T10:48:09.997Z,47.88
2023-01-09T10:51:11.295Z,47.60
2023-01-09T10:54:12.606Z,40.20
2023-01-09T10:57:13.940Z,41.85
2023-01-09T11:00:15.257Z,46.40
2023-01-09T11:03:16.625Z,52.08
2023-01-09T11:06:17.933Z,46.67
2023-01-09T11:09:19.232Z,38.65
2023-01-09T11:12:20.530Z,32.85
2023-01-09T11:15:21.833Z,34.35
2023-01-09T11:18:23.157Z,45.53
2023-01-09T11:21:24.434Z,43.50
2023-01-09T11:24:25.743Z,39.35
2023-01-09T11:27:27.048Z,32.58
2023-01-09T11:30:28.361Z,39.78
2023-01-09T11:33:29.707Z,130.50
2023-01-09T11:36:33.841Z,159.23
2023-01-09T11:39:35.251Z,139.30
2023-01-09T11:42:36.559Z,113.38
2023-01-09T11:45:37.863Z,90.82
2023-01-09T11:48:39.188Z,72.05
2023-01-09T11:51:40.507Z,70.20
2023-01-09T11:54:41.851Z,66.32
2023-01-09T11:57:43.156Z,65.15
2023-01-09T12:00:44.487Z,64.80
2023-01-09T12:03:45.792Z,143.15
2023-01-09T12:06:47.078Z,94.77
2023-01-09T12:09:48.395Z,109.60
2023-01-09T12:12:49.688Z,182.60
2023-01-09T12:15:51.123Z,131.80
2023-01-09T12:18:52.425Z,110.03
2023-01-09T12:21:53.714Z,108.90
2023-01-09T12:24:55.071Z,93.63
2023-01-09T12:27:56.660Z,87.60
2023-01-09T12:30:57.965Z,79.68
2023-01-09T12:33:59.277Z,64.25
2023-01-09T12:37:00.621Z,58.20
2023-01-09T12:40:02.030Z,59.42
2023-01-09T12:43:03.334Z,67.38
2023-01-09T12:46:04.728Z,70.65
2023-01-09T12:49:06.057Z,56.08
2023-01-09T12:52:07.358Z,50.83
2023-01-09T12:55:08.690Z,39.80
2023-01-09T12:58:10.060Z,50.45
2023-01-09T13:01:11.403Z,38.75
2023-01-09T13:04:12.731Z,50.08
2023-01-09T13:07:14.018Z,51.60
2023-01-09T13:10:15.320Z,42.15
2023-01-09T13:13:16.670Z,33.42
2023-01-09T13:16:17.983Z,35.72
2023-01-09T13:19:19.435Z,42.30
2023-01-09T13:22:20.748Z,39.57
2023-01-09T13:25:22.128Z,36.88
2023-01-09T13:28:23.444Z,32.22
2023-01-09T13:31:24.814Z,51.53
2023-01-09T13:34:26.182Z,34.83
2023-01-09T13:37:27.489Z,38.17
2023-01-09T13:40:28.812Z,32.50
2023-01-09T13:43:30.103Z,38.47
2023-01-09T13:46:31.489Z,40.33
2023-01-09T13:49:32.789Z,40.10
2023-01-09T13:52:34.120Z,28.97
2023-01-09T13:55:35.437Z,27.02
2023-01-09T13:58:36.814Z,21.67
2023-01-09T14:01:38.215Z,24.85
2023-01-09T14:04:39.622Z,30.63
2023-01-09T14:07:40.923Z,23.20
2023-01-09T14:10:42.241Z,39.00
2023-01-09T14:13:43.568Z,36.85
2023-01-09T14:16:44.950Z,26.55
2023-01-09T14:19:46.269Z,29.42
2023-01-09T14:22:56.204Z,25.90
2023-01-09T14:26:05.343Z,20.98
2023-01-09T14:29:06.644Z,20.52
2023-01-09T14:32:07.929Z,31.45
2023-01-09T14:35:09.225Z,22.45
2023-01-09T14:38:10.539Z,27.90
2023-01-09T14:41:11.857Z,16.90
2023-01-09T14:44:13.177Z,25.20
2023-01-09T14:47:14.466Z,20.92
2023-01-09T14:50:15.878Z,20.17
2023-01-09T14:53:17.171Z,21.13
2023-01-09T14:56:18.457Z,27.58
2023-01-09T14:59:19.849Z,22.77
2023-01-09T15:02:22.837Z,19.85
2023-01-09T15:05:24.293Z,22.02
2023-01-09T15:08:25.594Z,21.60
2023-01-09T15:11:26.925Z,29.23
2023-01-09T15:14:28.256Z,14.98
2023-01-09T15:17:29.535Z,24.02
2023-01-09T15:20:30.843Z,22.25
2023-01-09T15:23:32.172Z,20.63
2023-01-09T15:26:33.461Z,21.75
2023-01-09T15:29:34.782Z,19.92
2023-01-09T15:32:36.081Z,21.75
2023-01-09T15:35:37.426Z,24.08
2023-01-09T15:38:38.758Z,20.07
2023-01-09T15:41:40.056Z,31.23
2023-01-09T15:44:41.380Z,25.25
2023-01-09T15:47:42.680Z,27.73
2023-01-09T15:50:44.015Z,26.38
2023-01-09T15:53:45.339Z,89.97
2023-01-09T15:56:46.671Z,54.55
2023-01-09T15:59:47.964Z,42.22
2023-01-09T16:02:49.272Z,39.95
2023-01-09T16:05:50.584Z,39.05
2023-01-09T16:08:51.969Z,29.73
2023-01-09T16:11:53.347Z,38.13
2023-01-09T16:14:54.654Z,25.77
2023-01-09T16:17:55.987Z,31.90
2023-01-09T16:20:57.265Z,33.10
2023-01-09T16:23:58.593Z,22.10
2023-01-09T16:26:59.904Z,27.30
2023-01-09T16:30:01.482Z,21.13
2023-01-09T16:33:02.855Z,28.60
2023-01-09T16:36:04.177Z,25.63
2023-01-09T16:39:05.487Z,24.93
2023-01-09T16:42:06.802Z,22.63
2023-01-09T16:45:08.133Z,22.65
2023-01-09T16:48:09.435Z,20.30
2023-01-09T16:51:10.750Z,22.73
2023-01-09T16:54:12.060Z,18.53
2023-01-09T16:57:13.396Z,25.05
2023-01-09T17:00:14.693Z,26.45
2023-01-09T17:03:15.998Z,16.73
2023-01-09T17:06:17.290Z,18.45
2023-01-09T17:09:18.613Z,16.73
2023-01-09T17:12:19.960Z,22.15
2023-01-09T17:15:21.287Z,15.25
2023-01-09T17:18:22.598Z,14.70
2023-01-09T17:21:23.915Z,18.15
2023-01-09T17:24:25.243Z,9.97
2023-01-09T17:27:26.557Z,17.58
2023-01-09T17:30:27.883Z,19.30
2023-01-09T17:33:29.197Z,17.15
2023-01-09T17:36:30.531Z,11.52
2023-01-09T17:39:31.833Z,17.77
2023-01-09T17:42:33.154Z,17.60
2023-01-09T17:45:34.506Z,15.00
2023-01-09T17:48:35.839Z,9.52
2023-01-09T17:51:37.157Z,9.70
2023-01-09T17:54:38.459Z,10.93
2023-01-09T17:57:39.769Z,13.38
2023-01-09T18:00:41.081Z,5.90
2023-01-09T18:03:42.402Z,9.38
2023-01-09T18:06:43.696Z,10.18
2023-01-09T18:09:45.008Z,6.93
2023-01-09T18:12:46.293Z,7.85
2023-01-09T18:15:47.609Z,6.97
2023-01-09T18:18:48.905Z,7.93
2023-01-09T18:21:50.220Z,10.23
2023-01-09T18:24:52.591Z,6.83
2023-01-09T18:27:54.224Z,7.47
2023-01-09T18:30:55.582Z,10.50
2023-01-09T18:33:56.902Z,8.45
2023-01-09T18:36:58.319Z,8.07
2023-01-09T18:39:59.725Z,5.97
2023-01-09T18:43:01.069Z,5.95
2023-01-09T18:46:02.563Z,6.18
2023-01-09T18:49:04.353Z,6.72
2023-01-09T18:52:07.552Z,6.53
2023-01-09T18:55:09.071Z,6.70
2023-01-09T18:58:10.397Z,7.70
2023-01-09T19:01:11.734Z,4.93
2023-01-09T19:04:14.483Z,6.30
2023-01-09T19:07:16.170Z,8.93
2023-01-09T19:10:17.977Z,6.93
2023-01-09T19:13:19.366Z,5.45
2023-01-09T19:16:22.216Z,6.63
2023-01-09T19:19:23.620Z,5.03
2023-01-09T19:22:25.239Z,6.25
2023-01-09T19:25:26.670Z,4.23
2023-01-09T19:28:28.024Z,4.28
2023-01-09T19:31:29.371Z,4.32
2023-01-09T19:34:30.728Z,3.95
2023-01-09T19:37:32.145Z,4.57
2023-01-09T19:40:33.644Z,4.83
2023-01-09T19:43:35.027Z,3.85
2023-01-09T19:46:36.399Z,4.25
2023-01-09T19:49:38.119Z,6.47
2023-01-09T19:52:39.524Z,6.65
2023-01-09T19:55:41.314Z,3.43
2023-01-09T19:58:43.415Z,3.35
2023-01-09T20:01:47.003Z,4.10
2023-01-09T20:04:48.412Z,4.28
2023-01-09T20:07:50.121Z,3.47
2023-01-09T20:10:51.897Z,4.37
2023-01-09T20:13:53.287Z,4.43
2023-01-09T20:16:54.602Z,4.97
2023-01-09T20:19:55.907Z,3.60
2023-01-09T20:22:57.631Z,3.58
2023-01-09T20:26:00.022Z,2.57
2023-01-09T20:29:01.403Z,3.30
2023-01-09T20:32:02.721Z,2.92
2023-01-09T20:35:04.180Z,3.17
2023-01-09T20:38:05.875Z,4.40
2023-01-09T20:41:07.243Z,3.10
2023-01-09T20:44:08.968Z,5.63
2023-01-09T20:47:10.312Z,2.13
2023-01-09T20:50:11.700Z,3.53
2023-01-09T20:53:13.024Z,2.67
2023-01-09T20:56:14.372Z,2.73
2023-01-09T20:59:15.686Z,2.92
2023-01-09T21:02:17.035Z,2.65
2023-01-09T21:05:18.389Z,2.20
2023-01-09T21:08:19.673Z,3.15
2023-01-09T21:11:20.997Z,5.63
2023-01-09T21:14:22.294Z,2.35
2023-01-09T21:17:23.608Z,2.88
2023-01-09T21:20:24.919Z,2.67
2023-01-09T21:23:26.227Z,3.17
2023-01-09T21:26:27.589Z,2.13
2023-01-09T21:29:28.927Z,2.35
2023-01-09T21:32:30.216Z,2.30
2023-01-09T21:35:31.528Z,2.28
2023-01-09T21:38:32.818Z,2.83
2023-01-09T21:41:34.121Z,2.73
2023-01-09T21:44:35.440Z,2.70
2023-01-09T21:47:36.760Z,2.22
2023-01-09T21:50:38.064Z,2.85
2023-01-09T21:53:39.360Z,3.17
2023-01-09T21:56:40.670Z,2.07
2023-01-09T21:59:41.982Z,2.75
2023-01-09T22:02:43.268Z,4.15
2023-01-09T22:05:44.600Z,3.47
2023-01-09T22:08:45.895Z,2.10
2023-01-09T22:11:47.188Z,3.13
2023-01-09T22:14:48.491Z,2.35
2023-01-09T22:17:49.795Z,2.92
2023-01-09T22:20:51.116Z,2.10
2023-01-09T22:23:52.452Z,3.05
2023-01-09T22:26:53.797Z,2.00
2023-01-09T22:29:55.090Z,2.20
2023-01-09T22:32:56.408Z,2.40
2023-01-09T22:35:57.712Z,2.88
2023-01-09T22:38:59.037Z,3.03
2023-01-09T22:42:00.404Z,3.10
2023-01-09T22:45:01.719Z,2.38
2023-01-09T22:48:03.030Z,2.42
2023-01-09T22:51:04.339Z,2.20
2023-01-09T22:54:05.634Z,2.08
2023-01-09T22:57:06.957Z,2.50
2023-01-09T23:00:08.275Z,2.05
2023-01-09T23:03:09.629Z,2.00
2023-01-09T23:06:11.019Z,2.90
2023-01-09T23:09:12.324Z,2.03
2023-01-09T23:12:13.641Z,1.93
2023-01-09T23:15:14.948Z,4.13
2023-01-09T23:18:16.257Z,2.42
2023-01-09T23:21:17.567Z,1.98
2023-01-09T23:24:18.952Z,2.00
2023-01-09T23:27:20.265Z,2.77
2023-01-09T23:30:21.577Z,2.65
2023-01-09T23:33:22.878Z,2.00
2023-01-09T23:36:24.185Z,2.08
2023-01-09T23:39:25.487Z,1.92
2023-01-09T23:42:26.804Z,1.90
2023-01-09T23:45:28.156Z,2.08
2023-01-09T23:48:29.503Z,2.00
2023-01-09T23:51:30.783Z,2.17
2023-01-09T23:54:32.116Z,1.95
2023-01-09T23:57:33.403Z,1.97
